Green Fast — ZDHA9 — position and weather

sailwx.info

Track history (hours):
 
Tides and Currents Weather Stations Pressure Air Temp Water Temp Dewpoint Dewpoint Depression Visibility Wind Speed Wind Dir Waves Ship Positions

Green Fast

Last reported at 2016-Apr-30 22:26 UTC. Time now 2016-May-01 06:12 UTC.
Position N 40°55' E 028°42'.

Length 118 m; draft 6 m.

Type: Cargo ship. MMSI: 236294000.

Date/timePositionNaut miles runAvg speedWind from/ knotsBaromVisibWave heightAir tempDewpointWater temp
2016-Apr-30 22:26N 40°55' E 028°42'1010.7
2016-Apr-30 21:32N 40°56' E 028°54'29310.5
2016-Apr-29 17:33N 45°36' E 030°53'1212.1
2016-Apr-29 16:33N 45°48' E 030°58'1212.0
2016-Apr-29 15:33N 45°59' E 031°02'1410.3
2016-Apr-29 14:14N 46°13' E 030°56'14 1.3
2016-Apr-29 03:32N 46°20' E 030°40'5 5.2
2016-Apr-29 02:33N 46°16' E 030°45'8 8.2
2016-Apr-29 01:33N 46°08' E 030°46'9 8.8
2016-Apr-29 00:33N 45°59' E 030°46'11 9.6
2016-Apr-28 23:24N 45°50' E 030°37'8 9.6
2016-Apr-28 22:33N 45°43' E 030°32'9 9.5
2016-Apr-28 21:33N 45°35' E 030°24'23 9.6
2016-Apr-28 19:07N 45°16' E 030°06'5 9.5
2016-Apr-28 18:33N 45°11' E 030°04'  
2016-Apr-24 07:27N 46°16' E 030°53'12210.7
2016-Apr-23 20:04N 44°47' E 032°53'711.1
2016-Apr-23 19:28N 44°42' E 032°59'1010.9
2016-Apr-23 18:33N 44°35' E 033°08'1111.1
2016-Apr-23 17:33N 44°26' E 033°18'9411.3
2016-Apr-23 09:12N 43°13' E 034°41'2211.8
2016-Apr-23 07:21N 42°56' E 035°00'1012.1
2016-Apr-23 06:30N 42°48' E 035°09'  
Track history (hours):
 
Tides and Currents Weather Stations Pressure Air Temp Water Temp Dewpoint Dewpoint Depression Visibility Wind Speed Wind Dir Waves Ship Positions

Green Fast

Last reported at 2016-Apr-30 22:26 UTC. Time now 2016-May-01 06:12 UTC.
Position N 40°55' E 028°42'.

Length 118 m; draft 6 m.

Type: Cargo ship. MMSI: 236294000.

Date/timePositionNaut miles runAvg speedWind from/ knotsBaromVisibWave heightAir tempDewpointWater temp
2016-Apr-30 22:26N 40°55' E 028°42'1010.7
2016-Apr-30 21:32N 40°56' E 028°54'29310.5
2016-Apr-29 17:33N 45°36' E 030°53'1212.1
2016-Apr-29 16:33N 45°48' E 030°58'1212.0
2016-Apr-29 15:33N 45°59' E 031°02'1410.3
2016-Apr-29 14:14N 46°13' E 030°56'14 1.3
2016-Apr-29 03:32N 46°20' E 030°40'5 5.2
2016-Apr-29 02:33N 46°16' E 030°45'8 8.2
2016-Apr-29 01:33N 46°08' E 030°46'9 8.8
2016-Apr-29 00:33N 45°59' E 030°46'11 9.6
2016-Apr-28 23:24N 45°50' E 030°37'8 9.6
2016-Apr-28 22:33N 45°43' E 030°32'9 9.5
2016-Apr-28 21:33N 45°35' E 030°24'23 9.6
2016-Apr-28 19:07N 45°16' E 030°06'5 9.5
2016-Apr-28 18:33N 45°11' E 030°04'  
2016-Apr-24 07:27N 46°16' E 030°53'12210.7
2016-Apr-23 20:04N 44°47' E 032°53'711.1
2016-Apr-23 19:28N 44°42' E 032°59'1010.9
2016-Apr-23 18:33N 44°35' E 033°08'1111.1
2016-Apr-23 17:33N 44°26' E 033°18'9411.3
2016-Apr-23 09:12N 43°13' E 034°41'2211.8
2016-Apr-23 07:21N 42°56' E 035°00'1012.1
2016-Apr-23 06:30N 42°48' E 035°09'  

Dump ship's entire track history